Time;durP1;ratioP1;P1;durP2;ratioP2;P2;SDS_P1;SDS_P2;PMS_P1;PMS_P2;Temp;Humidity;BMP_temperature;BMP_pressure;BME280_temperature;BME280_humidity;BME280_pressure;Samples;Min_cycle;Max_cycle;Signal;HPM_P1;HPM_P2
2023/05/13 00:00:41;;;;;;;8.00;2.20;;;;;;;;;;4973185;28;20069;-62
2023/05/13 00:03:11;;;;;;;13.23;2.30;;;;;;;;;;4925073;28;20100;-63
2023/05/13 00:05:42;;;;;;;10.55;2.35;;;;;;;;;;4956915;28;20051;-62
2023/05/13 00:08:12;;;;;;;9.40;2.20;;;;;;;;;;4940891;28;20074;-62
2023/05/13 00:10:43;;;;;;;10.60;2.50;;;;;;;;;;4972742;28;20546;-63
2023/05/13 00:13:13;;;;;;;11.07;2.53;;;;;;;;;;4972732;28;20059;-62
2023/05/13 00:15:43;;;;;;;11.07;3.25;;;;;;;;;;4972607;28;20155;-62
2023/05/13 00:18:13;;;;;;;10.25;3.08;;;;;;;;;;4972688;28;20679;-62
2023/05/13 00:20:44;;;;;;;10.57;3.58;;;;;;;;;;4972898;28;20058;-62
2023/05/13 00:23:14;;;;;;;16.45;5.00;;;;;;;;;;4972927;28;20046;-62
2023/05/13 00:25:45;;;;;;;22.15;5.50;;;;;;;;;;4940845;28;20070;-62
2023/05/13 00:28:15;;;;;;;19.02;6.32;;;;;;;;;;4956702;28;20050;-63
2023/05/13 00:30:46;;;;;;;15.93;5.10;;;;;;;;;;4972617;28;20057;-63
2023/05/13 00:33:17;;;;;;;14.23;5.18;;;;;;;;;;4963294;28;20045;-64
2023/05/13 00:35:47;;;;;;;14.48;4.90;;;;;;;;;;4972246;28;20514;-63
2023/05/13 00:38:17;;;;;;;15.10;5.28;;;;;;;;;;4972363;28;20066;-63
2023/05/13 00:40:49;;;;;;;19.58;6.13;;;;;;;;;;4956064;28;20055;-63
2023/05/13 00:43:19;;;;;;;10.68;3.63;;;;;;;;;;4952538;29;20059;-62
2023/05/13 00:45:50;;;;;;;11.27;2.70;;;;;;;;;;4936865;29;20059;-62
2023/05/13 00:48:21;;;;;;;6.95;2.35;;;;;;;;;;4917940;29;20048;-62
2023/05/13 00:50:51;;;;;;;6.80;2.55;;;;;;;;;;4895599;29;20053;-62
2023/05/13 00:53:21;;;;;;;5.00;2.92;;;;;;;;;;4895389;29;20056;-62
2023/05/13 00:55:51;;;;;;;11.38;3.30;;;;;;;;;;4864456;29;20179;-63
2023/05/13 00:58:21;;;;;;;8.75;3.50;;;;;;;;;;4895509;29;20072;-62
2023/05/13 01:01:26;;;;;;;9.57;3.10;;;;;;;;;;4864508;29;20436;-62
2023/05/13 01:04:10;;;;;;;11.15;2.75;;;;;;;;;;4784894;30;20059;-62
2023/05/13 01:06:54;;;;;;;10.57;3.20;;;;;;;;;;4785429;30;20055;-63
2023/05/13 01:09:56;;;;;;;11.40;3.20;;;;;;;;;;4770261;30;20051;-63
2023/05/13 01:12:40;;;;;;;10.75;3.15;;;;;;;;;;4788030;29;20062;-63
2023/05/13 01:15:21;;;;;;;9.18;2.90;;;;;;;;;;4835390;29;20058;-63
2023/05/13 01:18:05;;;;;;;9.77;3.28;;;;;;;;;;4839597;29;20065;-62
2023/05/13 01:20:39;;;;;;;8.45;3.53;;;;;;;;;;4822299;29;20062;-63
2023/05/13 01:23:11;;;;;;;10.20;3.47;;;;;;;;;;4804850;29;20523;-63
2023/05/13 01:25:41;;;;;;;12.43;3.78;;;;;;;;;;4787202;29;20043;-62
2023/05/13 01:28:13;;;;;;;15.13;4.35;;;;;;;;;;4799613;29;20345;-62
2023/05/13 01:30:48;;;;;;;12.95;3.28;;;;;;;;;;4756087;30;20060;-63
2023/05/13 01:33:18;;;;;;;9.35;3.72;;;;;;;;;;4748919;30;20056;-62
2023/05/13 01:35:51;;;;;;;12.75;3.47;;;;;;;;;;4766739;30;20063;-62
2023/05/13 01:38:22;;;;;;;;;;;;;;;;;;4784971;30;20063;-61
2023/05/13 01:40:56;;;;;;;10.48;3.03;;;;;;;;;;4822325;29;19924;-62
2023/05/13 01:43:28;;;;;;;13.20;3.22;;;;;;;;;;4838683;29;20057;-62
2023/05/13 01:46:00;;;;;;;8.07;2.80;;;;;;;;;;4820712;29;20062;-62
2023/05/13 01:48:30;;;;;;;7.38;2.55;;;;;;;;;;4820493;29;20412;-63
2023/05/13 01:51:00;;;;;;;7.35;3.20;;;;;;;;;;4820805;29;20174;-62
2023/05/13 01:53:30;;;;;;;11.88;3.40;;;;;;;;;;4790939;29;20388;-61
2023/05/13 01:56:00;;;;;;;8.30;2.75;;;;;;;;;;4805519;29;20551;-62
2023/05/13 01:58:30;;;;;;;10.35;3.22;;;;;;;;;;4802021;29;20061;-62
2023/05/13 02:01:02;;;;;;;8.77;3.28;;;;;;;;;;4802114;29;20062;-62
2023/05/13 02:03:34;;;;;;;6.78;3.00;;;;;;;;;;4820443;29;20137;-61
2023/05/13 02:06:05;;;;;;;7.15;2.90;;;;;;;;;;4820415;29;20202;-63
2023/05/13 02:08:35;;;;;;;8.45;3.00;;;;;;;;;;4797091;29;20054;-63
2023/05/13 02:11:05;;;;;;;7.63;2.63;;;;;;;;;;4817906;29;20058;-62
2023/05/13 02:13:36;;;;;;;8.13;3.08;;;;;;;;;;4833014;29;20057;-63
2023/05/13 02:16:06;;;;;;;12.23;3.17;;;;;;;;;;4838157;29;20114;-63
2023/05/13 02:18:36;;;;;;;7.22;2.38;;;;;;;;;;4820650;29;20507;-62
2023/05/13 02:21:07;;;;;;;11.05;3.05;;;;;;;;;;4829405;29;20046;-63
2023/05/13 02:23:37;;;;;;;9.35;2.80;;;;;;;;;;4838081;29;20065;-63
2023/05/13 02:26:08;;;;;;;11.25;2.88;;;;;;;;;;4840980;29;20056;-64
2023/05/13 02:28:38;;;;;;;11.73;3.28;;;;;;;;;;4856739;29;20054;-63
2023/05/13 02:31:07;;;;;;;14.20;3.35;;;;;;;;;;4865420;29;20572;-64
2023/05/13 02:33:37;;;;;;;9.60;3.28;;;;;;;;;;4856774;29;20057;-63
2023/05/13 02:36:07;;;;;;;8.38;2.38;;;;;;;;;;4826169;29;20073;-63
2023/05/13 02:38:38;;;;;;;10.02;2.83;;;;;;;;;;4831791;29;20062;-63
2023/05/13 02:41:09;;;;;;;13.00;3.20;;;;;;;;;;4829432;29;20070;-63
2023/05/13 02:43:40;;;;;;;10.75;2.92;;;;;;;;;;4812027;29;20066;-62
2023/05/13 02:46:10;;;;;;;9.10;2.97;;;;;;;;;;4837990;29;20519;-62
2023/05/13 02:48:40;;;;;;;6.32;2.67;;;;;;;;;;4861878;29;20590;-62
2023/05/13 02:51:10;;;;;;;7.00;2.55;;;;;;;;;;4835915;29;20192;-62
2023/05/13 02:53:41;;;;;;;7.72;2.80;;;;;;;;;;4840998;29;20057;-62
2023/05/13 02:56:15;;;;;;;7.03;2.58;;;;;;;;;;4838049;29;20065;-63
2023/05/13 02:58:45;;;;;;;8.85;3.03;;;;;;;;;;4822492;29;20051;-63
2023/05/13 03:01:16;;;;;;;9.27;2.83;;;;;;;;;;4783851;29;20067;-63
2023/05/13 03:03:46;;;;;;;10.70;3.10;;;;;;;;;;4792262;29;20074;-62
2023/05/13 03:06:16;;;;;;;11.75;2.72;;;;;;;;;;4837021;29;20145;-61
2023/05/13 03:08:47;;;;;;;6.97;2.47;;;;;;;;;;4856193;29;20054;-63
2023/05/13 03:11:17;;;;;;;8.45;2.50;;;;;;;;;;4837378;29;20565;-63
2023/05/13 03:13:47;;;;;;;9.18;2.88;;;;;;;;;;4838127;29;20546;-63
2023/05/13 03:16:17;;;;;;;5.70;2.10;;;;;;;;;;4837946;29;20062;-62
2023/05/13 03:18:47;;;;;;;9.88;2.75;;;;;;;;;;4837825;29;20123;-64
2023/05/13 03:21:18;;;;;;;6.97;2.58;;;;;;;;;;4856112;29;20393;-63
2023/05/13 03:23:49;;;;;;;8.43;2.88;;;;;;;;;;4822390;29;20061;-64
2023/05/13 03:26:20;;;;;;;6.82;2.63;;;;;;;;;;4837575;29;20065;-63
2023/05/13 03:28:50;;;;;;;5.93;2.70;;;;;;;;;;4807072;29;20077;-64
2023/05/13 03:31:21;;;;;;;7.18;2.47;;;;;;;;;;4846700;29;20049;-63
2023/05/13 03:33:52;;;;;;;8.07;2.38;;;;;;;;;;4837609;29;20054;-63
2023/05/13 03:36:22;;;;;;;5.65;2.30;;;;;;;;;;4829102;29;20058;-63
2023/05/13 03:38:52;;;;;;;10.60;2.45;;;;;;;;;;4801264;29;20463;-63
2023/05/13 03:41:22;;;;;;;5.38;2.20;;;;;;;;;;4801132;29;20055;-63
2023/05/13 03:43:53;;;;;;;5.85;2.45;;;;;;;;;;4754832;30;20063;-63
2023/05/13 03:46:26;;;;;;;5.88;2.10;;;;;;;;;;4765474;30;20604;-63
2023/05/13 03:48:56;;;;;;;8.73;2.13;;;;;;;;;;4739445;30;20392;-63
2023/05/13 03:51:29;;;;;;;5.28;2.35;;;;;;;;;;4733395;30;20477;-63
2023/05/13 03:54:01;;;;;;;6.88;2.67;;;;;;;;;;4751010;30;20068;-64
2023/05/13 03:56:31;;;;;;;5.30;2.40;;;;;;;;;;4765179;30;20071;-63
2023/05/13 03:59:01;;;;;;;6.53;2.45;;;;;;;;;;4742227;30;20457;-62
2023/05/13 04:01:31;;;;;;;6.53;1.92;;;;;;;;;;4727303;30;20536;-63
2023/05/13 04:04:02;;;;;;;7.05;2.40;;;;;;;;;;4750813;30;20068;-63
2023/05/13 04:06:32;;;;;;;8.32;2.65;;;;;;;;;;4732930;30;20052;-65
2023/05/13 04:09:03;;;;;;;5.60;2.65;;;;;;;;;;4733472;30;20105;-63
2023/05/13 04:11:33;;;;;;;8.90;2.85;;;;;;;;;;4741926;30;20059;-63
2023/05/13 04:14:03;;;;;;;8.77;2.72;;;;;;;;;;4707018;30;20103;-63
2023/05/13 04:16:35;;;;;;;6.90;2.70;;;;;;;;;;4709249;30;20053;-63
2023/05/13 04:19:05;;;;;;;7.70;2.22;;;;;;;;;;4744919;30;20172;-63
2023/05/13 04:21:36;;;;;;;8.32;2.10;;;;;;;;;;4704311;30;20057;-64
2023/05/13 04:24:06;;;;;;;6.82;2.38;;;;;;;;;;4733057;30;20080;-62
2023/05/13 04:26:38;;;;;;;7.43;2.90;;;;;;;;;;4783143;29;20567;-62
2023/05/13 04:29:08;;;;;;;6.05;2.60;;;;;;;;;;4804001;29;20539;-62
2023/05/13 04:31:38;;;;;;;7.00;2.50;;;;;;;;;;4819021;29;20535;-62
2023/05/13 04:34:08;;;;;;;9.10;2.42;;;;;;;;;;4788848;29;20054;-63
2023/05/13 04:36:38;;;;;;;7.93;2.53;;;;;;;;;;4805637;29;20095;-64
2023/05/13 04:39:09;;;;;;;6.70;2.58;;;;;;;;;;4831224;29;20061;-63
2023/05/13 04:41:40;;;;;;;8.45;2.35;;;;;;;;;;4821834;29;20054;-62
2023/05/13 04:44:10;;;;;;;7.88;2.90;;;;;;;;;;4803566;29;20051;-62
2023/05/13 04:46:43;;;;;;;6.32;2.25;;;;;;;;;;4812121;29;20524;-64
2023/05/13 04:49:13;;;;;;;;;;;;;;;;;;4822282;29;20062;-62
2023/05/13 04:51:43;;;;;;;7.97;2.45;;;;;;;;;;4821444;29;20485;-64
2023/05/13 04:54:14;;;;;;;7.80;2.35;;;;;;;;;;4812707;29;20598;-63
2023/05/13 04:56:45;;;;;;;5.15;2.17;;;;;;;;;;4773676;29;20066;-63
2023/05/13 04:59:16;;;;;;;8.50;2.13;;;;;;;;;;4803504;29;20055;-63
2023/05/13 05:01:46;;;;;;;4.80;1.88;;;;;;;;;;4802438;29;20642;-63
2023/05/13 05:04:17;;;;;;;5.82;2.33;;;;;;;;;;4803196;29;20578;-63
2023/05/13 05:06:48;;;;;;;4.50;2.08;;;;;;;;;;4802984;29;20062;-63
2023/05/13 05:09:18;;;;;;;5.90;2.38;;;;;;;;;;4821258;29;20054;-63
2023/05/13 05:11:50;;;;;;;;;;;;;;;;;;4774218;29;20051;-63
2023/05/13 05:14:23;;;;;;;9.07;2.05;;;;;;;;;;4784585;30;19925;-62
2023/05/13 05:16:55;;;;;;;5.90;2.40;;;;;;;;;;4781462;30;20072;-62
2023/05/13 05:19:25;;;;;;;6.20;2.10;;;;;;;;;;4786069;29;20082;-63
2023/05/13 05:21:57;;;;;;;6.80;1.98;;;;;;;;;;4768725;30;20066;-63
2023/05/13 05:24:27;;;;;;;5.80;2.40;;;;;;;;;;4767276;30;20063;-63
2023/05/13 05:26:58;;;;;;;5.13;2.30;;;;;;;;;;4766960;30;20070;-63
2023/05/13 05:29:28;;;;;;;7.78;2.33;;;;;;;;;;4810770;29;20055;-63
2023/05/13 05:31:58;;;;;;;6.72;2.40;;;;;;;;;;4757905;30;20076;-62
2023/05/13 05:34:29;;;;;;;6.70;1.90;;;;;;;;;;4778327;29;20056;-63
2023/05/13 05:36:59;;;;;;;9.30;2.25;;;;;;;;;;4787869;29;20073;-63
2023/05/13 05:39:31;;;;;;;7.75;2.00;;;;;;;;;;4802506;29;20567;-62
2023/05/13 05:42:01;;;;;;;5.82;1.85;;;;;;;;;;4820880;29;20057;-63
2023/05/13 05:44:31;;;;;;;6.95;2.05;;;;;;;;;;4811062;29;20585;-63
2023/05/13 05:47:02;;;;;;;9.88;2.00;;;;;;;;;;4821534;29;20074;-62
2023/05/13 05:49:33;;;;;;;5.82;2.20;;;;;;;;;;4847839;29;20069;-64
2023/05/13 05:52:04;;;;;;;6.70;2.50;;;;;;;;;;4848085;29;20046;-63
2023/05/13 05:54:34;;;;;;;5.53;1.98;;;;;;;;;;4826434;29;20059;-63
2023/05/13 05:57:04;;;;;;;5.72;1.95;;;;;;;;;;4835543;29;20636;-63
2023/05/13 05:59:34;;;;;;;5.95;2.03;;;;;;;;;;4866656;29;20069;-63
2023/05/13 06:02:06;;;;;;;6.28;1.90;;;;;;;;;;4857428;29;20418;-62
2023/05/13 06:04:37;;;;;;;5.90;2.15;;;;;;;;;;4838418;29;20054;-62
2023/05/13 06:07:08;;;;;;;4.97;2.15;;;;;;;;;;4836111;29;20094;-63
2023/05/13 06:09:39;;;;;;;8.07;2.42;;;;;;;;;;4838190;29;20058;-62
2023/05/13 06:12:09;;;;;;;6.07;2.30;;;;;;;;;;4856555;29;20124;-61
2023/05/13 06:14:40;;;;;;;7.95;1.95;;;;;;;;;;4825999;29;20046;-63
2023/05/13 06:17:13;;;;;;;4.65;1.85;;;;;;;;;;4848141;29;20104;-62
2023/05/13 06:19:43;;;;;;;6.47;2.40;;;;;;;;;;4856725;29;20060;-62
2023/05/13 06:22:14;;;;;;;8.20;2.05;;;;;;;;;;4841556;29;20065;-62
2023/05/13 06:24:45;;;;;;;7.93;2.47;;;;;;;;;;4841353;29;20093;-64
2023/05/13 06:27:14;;;;;;;7.15;2.00;;;;;;;;;;4838747;29;20065;-63
2023/05/13 06:29:45;;;;;;;4.72;1.90;;;;;;;;;;4832564;29;20166;-63
2023/05/13 06:32:15;;;;;;;7.88;2.05;;;;;;;;;;4846913;29;20058;-63
2023/05/13 06:34:47;;;;;;;4.93;2.13;;;;;;;;;;4859434;29;20053;-62
2023/05/13 06:37:18;;;;;;;8.55;2.50;;;;;;;;;;4884685;29;20055;-62
2023/05/13 06:39:49;;;;;;;11.15;2.00;;;;;;;;;;4893876;29;20060;-62
2023/05/13 06:42:20;;;;;;;5.45;1.88;;;;;;;;;;4847069;29;20062;-62
2023/05/13 06:44:58;;;;;;;7.18;2.08;;;;;;;;;;4801547;29;20063;-62
2023/05/13 06:47:30;;;;;;;5.07;1.77;;;;;;;;;;4759042;29;20528;-62
2023/05/13 06:50:01;;;;;;;7.78;2.10;;;;;;;;;;4819816;29;20065;-63
2023/05/13 06:52:31;;;;;;;4.35;1.90;;;;;;;;;;4834610;29;20054;-62
2023/05/13 06:55:03;;;;;;;4.43;1.75;;;;;;;;;;4789420;29;20407;-62
2023/05/13 06:57:33;;;;;;;6.72;2.13;;;;;;;;;;4809866;29;20549;-62
2023/05/13 07:00:11;;;;;;;7.68;1.73;;;;;;;;;;4787769;29;20062;-62
2023/05/13 07:02:41;;;;;;;8.60;1.90;;;;;;;;;;4801691;29;20058;-62
2023/05/13 07:05:12;;;;;;;3.85;1.73;;;;;;;;;;4801783;29;20386;-62
2023/05/13 07:07:43;;;;;;;4.30;1.77;;;;;;;;;;4812865;29;20520;-63
2023/05/13 07:10:13;;;;;;;4.45;1.70;;;;;;;;;;4808726;29;20054;-62
2023/05/13 07:12:43;;;;;;;4.60;1.77;;;;;;;;;;4812838;29;20065;-62
2023/05/13 07:15:13;;;;;;;6.93;2.25;;;;;;;;;;4819690;29;20653;-63
2023/05/13 07:17:44;;;;;;;7.25;2.20;;;;;;;;;;4875121;29;20056;-63
2023/05/13 07:20:15;;;;;;;8.13;2.67;;;;;;;;;;4904640;29;20067;-62
2023/05/13 07:22:45;;;;;;;7.13;2.00;;;;;;;;;;4912750;29;20048;-62
2023/05/13 07:25:15;;;;;;;7.78;2.50;;;;;;;;;;4923171;28;20054;-62
2023/05/13 07:27:46;;;;;;;5.65;2.20;;;;;;;;;;4957671;28;20501;-63
2023/05/13 07:30:16;;;;;;;7.00;2.25;;;;;;;;;;4957550;28;20046;-62
2023/05/13 07:32:46;;;;;;;4.70;2.22;;;;;;;;;;4973668;28;20065;-62
2023/05/13 07:35:17;;;;;;;6.32;2.45;;;;;;;;;;4957356;28;20051;-63
2023/05/13 07:37:47;;;;;;;6.50;2.13;;;;;;;;;;4942238;28;20062;-63
2023/05/13 07:40:19;;;;;;;7.32;2.00;;;;;;;;;;4973710;28;20645;-63
2023/05/13 07:42:50;;;;;;;6.57;2.00;;;;;;;;;;4941564;28;20059;-62
2023/05/13 07:45:20;;;;;;;7.00;2.08;;;;;;;;;;4960362;28;20053;-62
2023/05/13 07:47:51;;;;;;;6.68;2.55;;;;;;;;;;5014531;28;20053;-62
2023/05/13 07:50:21;;;;;;;7.18;2.20;;;;;;;;;;4963898;28;20057;-63
2023/05/13 07:52:51;;;;;;;5.68;2.60;;;;;;;;;;5014669;28;20044;-62
2023/05/13 07:55:22;;;;;;;4.68;2.22;;;;;;;;;;4980190;28;20050;-61
2023/05/13 07:57:54;;;;;;;3.92;1.60;;;;;;;;;;5014716;28;20056;-64
2023/05/13 08:00:24;;;;;;;6.20;2.00;;;;;;;;;;4980637;28;20069;-62
2023/05/13 08:02:54;;;;;;;4.25;1.70;;;;;;;;;;5014513;28;20054;-63
2023/05/13 08:05:25;;;;;;;5.22;1.88;;;;;;;;;;5014494;28;20409;-62
2023/05/13 08:07:55;;;;;;;6.93;2.50;;;;;;;;;;4989986;28;20054;-62
2023/05/13 08:10:25;;;;;;;5.68;2.22;;;;;;;;;;5014586;28;20054;-62
2023/05/13 08:12:56;;;;;;;7.13;1.83;;;;;;;;;;4963697;28;20049;-63
2023/05/13 08:15:27;;;;;;;6.38;1.95;;;;;;;;;;5014474;28;20053;-63
2023/05/13 08:17:57;;;;;;;4.57;1.85;;;;;;;;;;5014491;28;20054;-62
2023/05/13 08:20:28;;;;;;;10.98;2.35;;;;;;;;;;5014501;28;20705;-63
2023/05/13 08:23:00;;;;;;;4.60;1.60;;;;;;;;;;4940620;28;20058;-63
2023/05/13 08:25:30;;;;;;;3.75;1.60;;;;;;;;;;4940592;28;20057;-62
2023/05/13 08:28:02;;;;;;;5.07;1.63;;;;;;;;;;4972590;28;20062;-62
2023/05/13 08:30:32;;;;;;;3.92;1.80;;;;;;;;;;4909798;28;20124;-62
2023/05/13 08:33:03;;;;;;;5.65;1.90;;;;;;;;;;4940557;28;20057;-62
2023/05/13 08:35:33;;;;;;;6.05;1.85;;;;;;;;;;4956400;28;20063;-63
2023/05/13 08:38:04;;;;;;;4.97;2.00;;;;;;;;;;4902133;29;20047;-63
2023/05/13 08:40:34;;;;;;;5.40;2.17;;;;;;;;;;4933959;29;20070;-63
2023/05/13 08:43:06;;;;;;;6.78;2.22;;;;;;;;;;4934032;29;20055;-63
2023/05/13 08:45:38;;;;;;;6.18;2.58;;;;;;;;;;4934113;29;20492;-63
2023/05/13 08:48:10;;;;;;;8.82;2.10;;;;;;;;;;4886945;29;20531;-62
2023/05/13 08:50:41;;;;;;;5.70;1.88;;;;;;;;;;4933962;29;20054;-63
2023/05/13 08:53:12;;;;;;;7.32;1.60;;;;;;;;;;4933570;29;20095;-63
2023/05/13 08:55:42;;;;;;;6.97;1.80;;;;;;;;;;4903230;29;20067;-63
2023/05/13 08:58:12;;;;;;;5.72;1.95;;;;;;;;;;4933731;29;20056;-63
2023/05/13 09:00:42;;;;;;;8.02;2.33;;;;;;;;;;4906228;29;20056;-61
2023/05/13 09:03:13;;;;;;;6.25;2.03;;;;;;;;;;4895426;29;20053;-62
2023/05/13 09:05:44;;;;;;;5.63;1.70;;;;;;;;;;4845922;29;20558;-62
2023/05/13 09:08:15;;;;;;;6.85;2.38;;;;;;;;;;4895860;29;20101;-62
2023/05/13 09:10:46;;;;;;;6.63;2.15;;;;;;;;;;4933583;29;20055;-61
2023/05/13 09:13:17;;;;;;;8.25;2.10;;;;;;;;;;4933293;29;20075;-62
2023/05/13 09:15:49;;;;;;;6.72;1.90;;;;;;;;;;4933538;29;20051;-62
2023/05/13 09:18:21;;;;;;;6.38;2.10;;;;;;;;;;4933281;29;20508;-62
2023/05/13 09:20:51;;;;;;;4.40;2.38;;;;;;;;;;4902620;29;20508;-62
2023/05/13 09:23:26;;;;;;;5.80;2.35;;;;;;;;;;4933240;29;20064;-62
2023/05/13 09:25:56;;;;;;;4.18;1.73;;;;;;;;;;4887176;29;20059;-61
2023/05/13 09:28:26;;;;;;;5.78;2.10;;;;;;;;;;4933257;29;20057;-62
2023/05/13 09:30:57;;;;;;;6.03;2.10;;;;;;;;;;4932854;29;20056;-62
2023/05/13 09:33:31;;;;;;;5.80;2.40;;;;;;;;;;4919094;29;20059;-62
2023/05/13 09:36:04;;;;;;;7.97;2.60;;;;;;;;;;4936143;29;20087;-62
2023/05/13 09:38:37;;;;;;;9.32;3.13;;;;;;;;;;4934773;28;20062;-61
2023/05/13 09:41:10;;;;;;;8.50;2.45;;;;;;;;;;4991110;28;20073;-63
2023/05/13 09:43:40;;;;;;;8.75;2.33;;;;;;;;;;5015328;28;20061;-63
2023/05/13 09:46:10;;;;;;;6.00;2.20;;;;;;;;;;5032571;28;20052;-62
2023/05/13 09:48:42;;;;;;;3.72;1.85;;;;;;;;;;5031931;28;20057;-63
2023/05/13 09:51:15;;;;;;;7.88;2.08;;;;;;;;;;5032350;28;20041;-63
2023/05/13 09:53:47;;;;;;;7.70;2.40;;;;;;;;;;4997835;28;20065;-62
2023/05/13 09:56:23;;;;;;;6.75;2.42;;;;;;;;;;5032386;28;20045;-62
2023/05/13 09:58:53;;;;;;;5.60;1.98;;;;;;;;;;5013422;28;20060;-62
2023/05/13 10:01:26;;;;;;;4.97;2.15;;;;;;;;;;4998038;28;20539;-62
2023/05/13 10:03:58;;;;;;;5.07;1.83;;;;;;;;;;5032036;28;20056;-63
2023/05/13 10:06:30;;;;;;;6.75;2.75;;;;;;;;;;4996984;28;20050;-62
2023/05/13 10:09:03;;;;;;;9.10;2.65;;;;;;;;;;5031834;28;20053;-62
2023/05/13 10:11:35;;;;;;;5.95;2.38;;;;;;;;;;4997601;28;20057;-62
2023/05/13 10:14:06;;;;;;;6.68;2.42;;;;;;;;;;5031659;28;20121;-62
2023/05/13 10:16:38;;;;;;;8.57;2.85;;;;;;;;;;5031916;28;20075;-61
2023/05/13 10:19:09;;;;;;;6.05;3.00;;;;;;;;;;5031687;28;20045;-61
2023/05/13 10:21:40;;;;;;;6.88;2.97;;;;;;;;;;4980847;28;20510;-61
2023/05/13 10:24:11;;;;;;;12.95;3.17;;;;;;;;;;4949434;28;20753;-61
2023/05/13 10:26:42;;;;;;;5.70;2.63;;;;;;;;;;5031506;28;20041;-62
2023/05/13 10:29:13;;;;;;;6.97;3.20;;;;;;;;;;5031688;28;20037;-62
2023/05/13 10:31:45;;;;;;;8.35;2.85;;;;;;;;;;5031715;28;20049;-62
2023/05/13 10:34:16;;;;;;;9.15;2.85;;;;;;;;;;5031369;28;20493;-61
2023/05/13 10:37:18;;;;;;;5.93;2.67;;;;;;;;;;5031467;28;20068;-62
2023/05/13 10:40:32;;;;;;;7.00;2.55;;;;;;;;;;4919100;29;20047;-62
2023/05/13 10:43:24;;;;;;;8.07;2.95;;;;;;;;;;4878304;29;20052;-62
2023/05/13 10:45:56;;;;;;;;;;;;;;;;;;4894263;29;20067;-62
2023/05/13 10:48:46;;;;;;;7.43;3.00;;;;;;;;;;4893958;29;20300;-61
2023/05/13 10:51:17;;;;;;;6.38;2.97;;;;;;;;;;4894043;29;20060;-62
2023/05/13 10:53:52;;;;;;;10.05;3.17;;;;;;;;;;4862894;29;20057;-62
2023/05/13 10:56:24;;;;;;;10.38;3.63;;;;;;;;;;4862947;29;20599;-62
2023/05/13 10:59:02;;;;;;;12.77;3.75;;;;;;;;;;4894475;29;20399;-62
2023/05/13 11:01:45;;;;;;;15.68;4.63;;;;;;;;;;4866885;29;20637;-62
2023/05/13 11:04:18;;;;;;;11.60;4.10;;;;;;;;;;4897457;29;20064;-63
2023/05/13 11:06:50;;;;;;;10.38;4.00;;;;;;;;;;4866506;29;20067;-61
2023/05/13 11:09:20;;;;;;;11.40;4.35;;;;;;;;;;4897520;29;20048;-62
2023/05/13 11:11:55;;;;;;;12.13;4.55;;;;;;;;;;4897775;29;20053;-61
2023/05/13 11:14:30;;;;;;;10.05;4.28;;;;;;;;;;4881962;29;20053;-62
2023/05/13 11:17:00;;;;;;;9.20;3.70;;;;;;;;;;4942770;28;20066;-62
2023/05/13 11:19:34;;;;;;;9.55;3.70;;;;;;;;;;4979927;28;20061;-63
2023/05/13 11:22:15;;;;;;;7.97;3.80;;;;;;;;;;5035142;28;20505;-62
2023/05/13 11:25:08;;;;;;;11.20;3.67;;;;;;;;;;5034943;28;20045;-63
2023/05/13 11:27:42;;;;;;;8.73;3.38;;;;;;;;;;5034929;28;20038;-62
2023/05/13 11:30:28;;;;;;;7.72;3.55;;;;;;;;;;5035246;28;20053;-61
2023/05/13 11:33:01;;;;;;;8.05;3.90;;;;;;;;;;5034759;28;20057;-62
2023/05/13 11:35:32;;;;;;;11.13;4.60;;;;;;;;;;5034636;28;20053;-62
2023/05/13 11:38:03;;;;;;;9.95;3.90;;;;;;;;;;4999735;28;20049;-62
2023/05/13 11:40:35;;;;;;;8.93;3.78;;;;;;;;;;4992842;28;20050;-63
2023/05/13 11:43:07;;;;;;;11.07;4.40;;;;;;;;;;4993126;28;20055;-63
2023/05/13 11:45:41;;;;;;;12.20;3.95;;;;;;;;;;4992912;28;20062;-62
2023/05/13 11:48:21;;;;;;;9.68;4.00;;;;;;;;;;4946095;28;20054;-62
2023/05/13 11:50:51;;;;;;;12.20;5.95;;;;;;;;;;4992685;28;20062;-62
2023/05/13 11:53:22;;;;;;;8.70;4.63;;;;;;;;;;4960343;28;20057;-62
2023/05/13 11:55:52;;;;;;;11.30;4.40;;;;;;;;;;4992714;28;20073;-62
2023/05/13 11:58:22;;;;;;;9.25;4.28;;;;;;;;;;4992712;28;20075;-63
2023/05/13 12:00:54;;;;;;;10.27;4.40;;;;;;;;;;4992610;28;20077;-63
2023/05/13 12:03:27;;;;;;;11.15;5.40;;;;;;;;;;4975932;28;20054;-63
2023/05/13 12:06:01;;;;;;;9.55;4.97;;;;;;;;;;4992510;28;20070;-62
2023/05/13 12:08:32;;;;;;;9.93;5.28;;;;;;;;;;4913025;28;20054;-63
2023/05/13 12:11:04;;;;;;;10.35;5.68;;;;;;;;;;5001698;28;20065;-62
2023/05/13 12:13:35;;;;;;;16.63;6.93;;;;;;;;;;4952346;28;20061;-62
2023/05/13 12:16:05;;;;;;;19.65;8.90;;;;;;;;;;4992029;28;20061;-62
2023/05/13 12:18:36;;;;;;;40.00;17.48;;;;;;;;;;4992140;28;20523;-61
2023/05/13 12:21:16;;;;;;;17.77;7.95;;;;;;;;;;4992410;28;20481;-62
2023/05/13 12:23:46;;;;;;;22.27;10.07;;;;;;;;;;4992056;28;20061;-61
2023/05/13 12:26:18;;;;;;;53.88;25.58;;;;;;;;;;4959701;28;20561;-61
2023/05/13 12:28:59;;;;;;;17.77;8.25;;;;;;;;;;4975485;28;20153;-62
2023/05/13 12:31:29;;;;;;;15.27;8.15;;;;;;;;;;4992298;28;20505;-63
2023/05/13 12:34:00;;;;;;;28.52;13.98;;;;;;;;;;4991896;28;20062;-62
2023/05/13 12:36:32;;;;;;;20.33;10.50;;;;;;;;;;4991928;28;20053;-62
2023/05/13 12:39:08;;;;;;;13.65;6.78;;;;;;;;;;4975463;28;20055;-60
2023/05/13 12:41:42;;;;;;;25.27;12.50;;;;;;;;;;4991705;28;20074;-64
2023/05/13 12:44:14;;;;;;;38.72;10.13;;;;;;;;;;4928455;28;20057;-61
2023/05/13 12:46:55;;;;;;;13.68;6.85;;;;;;;;;;4944711;28;20102;-61
2023/05/13 12:49:26;;;;;;;9.60;5.05;;;;;;;;;;4961675;28;20054;-62
2023/05/13 12:51:56;;;;;;;9.07;4.32;;;;;;;;;;4991577;28;20051;-62
2023/05/13 12:54:26;;;;;;;14.98;5.78;;;;;;;;;;5024803;28;20062;-61
2023/05/13 12:56:56;;;;;;;13.95;5.78;;;;;;;;;;4983388;28;20053;-62
2023/05/13 12:59:28;;;;;;;10.05;4.60;;;;;;;;;;5033359;28;20053;-62
2023/05/13 13:01:58;;;;;;;12.63;5.35;;;;;;;;;;5016181;28;20497;-61
2023/05/13 13:04:29;;;;;;;10.70;5.30;;;;;;;;;;5033198;28;20501;-61
2023/05/13 13:06:59;;;;;;;12.98;5.53;;;;;;;;;;4983383;28;20060;-62
2023/05/13 13:09:30;;;;;;;15.05;5.45;;;;;;;;;;4997852;28;20502;-63
2023/05/13 13:12:00;;;;;;;10.85;4.95;;;;;;;;;;5032804;28;20037;-63
2023/05/13 13:14:30;;;;;;;10.88;5.53;;;;;;;;;;5033201;28;20397;-62
2023/05/13 13:17:00;;;;;;;12.13;6.00;;;;;;;;;;5032685;28;20053;-63
2023/05/13 13:19:30;;;;;;;9.38;4.38;;;;;;;;;;4982304;28;20072;-62
2023/05/13 13:22:00;;;;;;;9.82;4.03;;;;;;;;;;5031842;28;20049;-63
2023/05/13 13:24:32;;;;;;;6.78;3.58;;;;;;;;;;5032963;28;20049;-63
2023/05/13 13:27:02;;;;;;;8.88;3.78;;;;;;;;;;4939896;28;20054;-62
2023/05/13 13:29:32;;;;;;;8.30;3.90;;;;;;;;;;4971617;28;20095;-62
2023/05/13 13:32:02;;;;;;;7.60;4.03;;;;;;;;;;4971401;28;20638;-62
2023/05/13 13:34:33;;;;;;;10.30;4.10;;;;;;;;;;4971750;28;20050;-62
2023/05/13 13:37:03;;;;;;;9.63;4.32;;;;;;;;;;4971245;28;20403;-63
2023/05/13 13:39:34;;;;;;;8.90;4.00;;;;;;;;;;4971253;28;20161;-63
2023/05/13 13:42:05;;;;;;;8.48;4.05;;;;;;;;;;4923036;28;20042;-62
2023/05/13 13:44:37;;;;;;;10.60;4.22;;;;;;;;;;4971176;28;20529;-63
2023/05/13 13:47:08;;;;;;;8.82;4.10;;;;;;;;;;4932281;29;20056;-62
2023/05/13 13:49:38;;;;;;;7.28;3.50;;;;;;;;;;4932603;29;20056;-63
2023/05/13 13:52:09;;;;;;;9.20;3.80;;;;;;;;;;4932364;29;20440;-63
2023/05/13 13:54:39;;;;;;;10.77;3.83;;;;;;;;;;4932569;29;20059;-63
2023/05/13 13:57:09;;;;;;;9.02;3.65;;;;;;;;;;4932423;29;20201;-63
2023/05/13 13:59:40;;;;;;;8.95;3.97;;;;;;;;;;4932320;29;20439;-64
2023/05/13 14:02:11;;;;;;;7.57;3.67;;;;;;;;;;4932351;29;20052;-63
2023/05/13 14:04:41;;;;;;;11.05;5.05;;;;;;;;;;4888742;28;20063;-62
2023/05/13 14:07:12;;;;;;;5.80;3.22;;;;;;;;;;4954520;28;20059;-63
2023/05/13 14:09:42;;;;;;;6.90;3.65;;;;;;;;;;4970486;28;20069;-62
2023/05/13 14:12:15;;;;;;;13.95;5.03;;;;;;;;;;4970604;28;20102;-63
2023/05/13 14:14:45;;;;;;;8.90;4.32;;;;;;;;;;4970534;28;20051;-63
2023/05/13 14:17:15;;;;;;;7.35;3.47;;;;;;;;;;4923729;28;20058;-63
2023/05/13 14:19:45;;;;;;;7.78;3.90;;;;;;;;;;4908367;28;20063;-62
2023/05/13 14:22:15;;;;;;;9.68;4.25;;;;;;;;;;4922607;28;20055;-62
2023/05/13 14:24:46;;;;;;;9.73;4.45;;;;;;;;;;4990259;28;20062;-62
2023/05/13 14:27:16;;;;;;;10.27;4.07;;;;;;;;;;5009444;28;20390;-62
2023/05/13 14:29:47;;;;;;;9.27;4.53;;;;;;;;;;4940013;28;20528;-62
2023/05/13 14:32:18;;;;;;;9.18;3.90;;;;;;;;;;4989767;28;20054;-63
2023/05/13 14:34:48;;;;;;;9.15;4.30;;;;;;;;;;4989527;28;20062;-62
2023/05/13 14:37:19;;;;;;;10.25;4.15;;;;;;;;;;4973187;28;20042;-63
2023/05/13 14:39:49;;;;;;;8.98;4.32;;;;;;;;;;4989771;28;20514;-62
2023/05/13 14:42:20;;;;;;;10.80;3.95;;;;;;;;;;4989565;28;20198;-63
2023/05/13 14:44:50;;;;;;;10.95;4.32;;;;;;;;;;4989549;28;20066;-62
2023/05/13 14:47:21;;;;;;;8.50;4.28;;;;;;;;;;4957969;28;20058;-62
2023/05/13 14:49:52;;;;;;;8.25;3.90;;;;;;;;;;4989418;28;20058;-63
2023/05/13 14:52:22;;;;;;;7.65;4.07;;;;;;;;;;4989645;28;20424;-62
2023/05/13 14:54:53;;;;;;;5.53;2.92;;;;;;;;;;4973787;28;20050;-62
2023/05/13 14:57:23;;;;;;;10.23;4.40;;;;;;;;;;4989432;28;20066;-62
2023/05/13 14:59:53;;;;;;;10.15;4.03;;;;;;;;;;4940809;28;20061;-62
2023/05/13 15:02:25;;;;;;;9.20;3.90;;;;;;;;;;4957288;28;20503;-63
2023/05/13 15:04:56;;;;;;;7.95;3.42;;;;;;;;;;4989426;28;20086;-62
2023/05/13 15:07:27;;;;;;;6.22;3.70;;;;;;;;;;4973431;28;20078;-62